Time;durP1;ratioP1;P1;durP2;ratioP2;P2;SDS_P1;SDS_P2;PMS_P1;PMS_P2;Temp;Humidity;BMP_temperature;BMP_pressure;BME280_temperature;BME280_humidity;BME280_pressure;Samples;Min_cycle;Max_cycle;Signal;HPM_P1;HPM_P2
2022/07/28 00:02:00;;;;;;;;;3.50;3.00;;;;;20.64;37.18;101287.34;6278966;22;45359;-81
2022/07/28 00:04:26;;;;;;;;;4.25;3.00;;;;;20.62;37.06;101282.97;6276430;22;48193;-82
2022/07/28 00:06:51;;;;;;;;;2.25;2.25;;;;;20.51;37.34;101261.06;6276238;22;45161;-82
2022/07/28 00:09:16;;;;;;;;;2.75;2.75;;;;;20.58;37.29;101274.22;6250589;22;45276;-81
2022/07/28 00:11:42;;;;;;;;;2.75;2.75;;;;;20.60;37.28;101268.78;6251212;22;45436;-81
2022/07/28 00:14:09;;;;;;;;;3.50;2.50;;;;;20.61;37.14;101283.88;6250160;22;47181;-81
2022/07/28 00:16:35;;;;;;;;;3.75;3.75;;;;;20.49;37.69;101261.97;6278390;22;45237;-82
2022/07/28 00:19:00;;;;;;;;;1.50;1.50;;;;;20.56;37.33;101273.38;6250608;22;45401;-82
2022/07/28 00:21:26;;;;;;;;;3.00;3.00;;;;;20.54;37.70;101267.22;6250479;22;45200;-81
2022/07/28 00:23:51;;;;;;;;;6.25;4.00;;;;;20.49;37.63;101261.97;6250531;22;47615;-81
2022/07/28 00:26:16;;;;;;;;;2.00;2.00;;;;;20.47;37.47;101260.28;6250614;22;45281;-81
2022/07/28 00:28:42;;;;;;;;;3.50;3.50;;;;;20.40;37.72;101248.97;6278356;22;45162;-81
2022/07/28 00:31:07;;;;;;;;;2.75;2.75;;;;;20.44;37.94;101255.06;6276594;22;45446;-81
2022/07/28 00:33:32;;;;;;;;;4.00;3.00;;;;;20.28;38.09;101228.00;6277618;22;46554;-81
2022/07/28 00:35:58;;;;;;;;;2.00;2.00;;;;;20.36;37.80;101246.44;6250219;22;45509;-81
2022/07/28 00:38:23;;;;;;;;;6.00;4.50;;;;;20.25;38.29;101220.97;6276819;22;45278;-81
2022/07/28 00:43:32;;;;;;;;;5.00;3.25;;;;;20.26;38.12;101230.75;6279207;22;45481;-81
2022/07/28 00:45:58;;;;;;;;;2.50;2.50;;;;;20.26;37.93;101237.88;6251398;22;45383;-82
2022/07/28 00:48:23;;;;;;;;;2.75;2.75;;;;;20.15;37.95;101224.88;6279471;22;45332;-82
2022/07/28 00:50:50;;;;;;;;;4.75;3.50;;;;;20.12;38.46;101224.13;6252050;22;45336;-82
2022/07/28 00:53:16;;;;;;;;;4.75;3.75;;;;;20.13;38.29;101225.88;6277372;22;47277;-81
2022/07/28 00:55:42;;;;;;;;;3.25;3.25;;;;;20.15;38.38;101237.38;6277967;22;45817;-81
2022/07/28 00:58:08;;;;;;;;;3.25;3.25;;;;;20.00;38.67;101210.28;6252391;22;45292;-81
2022/07/28 01:00:33;;;;;;;;;4.25;4.25;;;;;20.15;38.56;101222.22;6251675;22;45426;-81
2022/07/28 01:02:59;;;;;;;;;2.75;2.75;;;;;20.05;38.56;101199.44;6251938;22;48026;-81
2022/07/28 01:05:33;;;;;;;;;4.25;3.25;;;;;20.13;38.35;101210.72;6251886;22;45230;-81
2022/07/28 01:08:04;;;;;;;;;3.00;3.00;;;;;20.13;38.03;101218.75;6278642;22;45197;-81
2022/07/28 01:10:48;;;;;;;;;4.00;2.75;;;;;20.19;38.76;101223.00;6279454;22;45366;-82
2022/07/28 01:13:25;;;;;;;;;4.00;3.00;;;;;20.08;38.82;101210.03;6279252;22;46542;-81
2022/07/28 01:15:59;;;;;;;;;4.00;2.75;;;;;20.09;38.66;101216.22;6278994;22;45336;-81
2022/07/28 01:18:27;;;;;;;;;2.75;2.75;;;;;20.12;38.56;101224.13;6250361;22;45422;-81
2022/07/28 01:20:59;;;;;;;;;3.00;3.00;;;;;20.00;38.55;101202.28;6279191;22;45391;-81
2022/07/28 01:23:31;;;;;;;;;3.00;3.00;;;;;20.09;38.80;101221.56;6278962;22;46351;-81
2022/07/28 01:26:14;;;;;;;;;4.00;3.50;;;;;20.04;38.64;101214.56;6279441;22;45106;-84
2022/07/28 01:29:05;;;;;;;;;2.00;2.00;;;;;20.02;39.09;101223.56;6279597;22;45152;-81
2022/07/28 01:31:39;;;;;;;;;5.75;5.25;;;;;19.93;39.01;101216.75;6279224;22;45284;-80
2022/07/28 01:34:09;;;;;;;;;3.00;3.00;;;;;19.89;38.80;101211.56;6279210;22;46351;-81
2022/07/28 01:36:43;;;;;;;;;3.75;3.75;;;;;19.89;39.03;101215.16;6250414;22;45394;-81
2022/07/28 01:39:10;;;;;;;;;3.50;3.50;;;;;19.79;39.16;101197.69;6279490;22;45189;-81
2022/07/28 01:41:38;;;;;;;;;4.75;3.25;;;;;19.87;39.20;101208.09;6277357;22;45529;-81
2022/07/28 01:44:11;;;;;;;;;3.00;3.00;;;;;19.79;39.18;101203.03;6278972;22;45386;-81
2022/07/28 01:46:37;;;;;;;;;3.75;3.75;;;;;19.91;39.45;101226.63;6251366;22;45519;-83
2022/07/28 01:49:05;;;;;;;;;4.25;4.25;;;;;19.91;39.21;101220.41;6250801;22;45240;-83
2022/07/28 01:51:33;;;;;;;;;2.00;2.00;;;;;19.90;39.50;101208.88;6251273;22;45447;-81
2022/07/28 01:54:00;;;;;;;;;3.00;3.00;;;;;19.88;39.64;101204.50;6277063;22;47109;-81
2022/07/28 01:56:29;;;;;;;;;2.50;2.25;;;;;19.89;39.47;101203.56;6278876;22;45227;-81
2022/07/28 01:58:58;;;;;;;;;3.75;2.25;;;;;19.79;39.64;101181.66;6279081;22;45304;-81
2022/07/28 02:01:28;;;;;;;;;2.00;2.00;;;;;19.82;39.58;101185.06;6279215;22;45132;-81
2022/07/28 02:03:56;;;;;;;;;3.25;3.25;;;;;19.82;39.37;101189.56;6251072;22;47449;-81
2022/07/28 02:06:23;;;;;;;;;2.25;2.25;;;;;19.86;39.42;101192.97;6276768;22;45632;-81
2022/07/28 02:08:51;;;;;;;;;1.50;1.00;;;;;19.77;39.55;101180.81;6279368;22;45173;-81
2022/07/28 02:14:01;;;;;;;;;2.50;2.50;;;;;19.90;39.64;101202.66;6278600;22;45310;-81
2022/07/28 02:16:29;;;;;;;;;2.50;2.50;;;;;19.72;39.57;101175.63;6277020;22;45202;-81
2022/07/28 02:18:57;;;;;;;;;3.00;3.00;;;;;19.69;39.72;101167.72;6277676;22;45405;-81
2022/07/28 02:21:24;;;;;;;;;3.00;3.00;;;;;19.79;39.82;101179.84;6277096;22;45530;-81
2022/07/28 02:23:52;;;;;;;;;1.50;1.50;;;;;19.76;39.63;101173.75;6251362;22;48247;-81
2022/07/28 02:26:25;;;;;;;;;2.00;2.00;;;;;19.72;39.61;101170.28;6278707;22;45443;-81
2022/07/28 02:28:57;;;;;;;;;1.50;1.00;;;;;19.82;39.75;101181.53;6251174;22;45243;-81
2022/07/28 02:31:28;;;;;;;;;2.00;2.00;;;;;19.83;39.97;101184.16;6251068;22;45718;-81
2022/07/28 02:33:57;;;;;;;;;2.75;2.75;;;;;19.65;39.62;101150.03;6250698;22;47645;-81
2022/07/28 02:36:51;;;;;;;;;1.75;1.75;;;;;19.69;40.24;101148.16;6278568;22;45240;-81
2022/07/28 02:39:22;;;;;;;;;2.25;2.25;;;;;19.63;39.64;101138.53;6251596;22;45371;-81
2022/07/28 02:41:54;;;;;;;;;1.25;1.25;;;;;19.73;40.18;101156.03;6279067;22;45413;-83
2022/07/28 02:44:27;;;;;;;;;2.75;2.75;;;;;19.71;40.16;101154.34;6250722;22;46954;-81
2022/07/28 02:46:56;;;;;;;;;2.50;2.50;;;;;19.81;40.03;101166.44;6278731;22;45185;-83
2022/07/28 02:49:29;;;;;;;;;4.00;3.50;;;;;19.74;40.22;101156.88;6276985;22;45355;-83
2022/07/28 02:51:55;;;;;;;;;4.75;4.25;;;;;19.85;40.26;101168.06;6251033;22;46078;-83
2022/07/28 02:54:23;;;;;;;;;1.75;1.75;;;;;19.80;40.14;101162.00;6250878;22;47133;-83
2022/07/28 02:56:50;;;;;;;;;2.75;2.75;;;;;19.81;40.27;101169.13;6251264;22;45337;-83
2022/07/28 02:59:18;;;;;;;;;6.25;4.00;;;;;19.71;40.09;101151.66;6276840;22;45301;-83
2022/07/28 03:01:44;;;;;;;;;3.25;2.50;;;;;19.57;40.31;101136.94;6278386;22;45173;-83
2022/07/28 03:04:11;;;;;;;;;2.00;2.00;;;;;19.69;40.46;101157.03;6278851;22;45205;-83
2022/07/28 03:06:40;;;;;;;;;3.25;3.25;;;;;19.73;40.13;101163.16;6278839;22;45219;-83
2022/07/28 03:09:08;;;;;;;;;5.00;3.75;;;;;19.62;40.51;101136.81;6249922;22;45398;-83
2022/07/28 03:11:33;;;;;;;;;1.25;1.25;;;;;19.59;40.31;101134.22;6278949;22;45122;-83
2022/07/28 03:13:59;;;;;;;;;1.75;1.75;;;;;19.68;40.61;101155.31;6278642;22;46225;-83
2022/07/28 03:16:24;;;;;;;;;2.00;2.00;;;;;19.55;40.14;101130.78;6251442;22;45829;-83
2022/07/28 03:18:50;;;;;;;;;3.25;3.25;;;;;19.64;40.42;101150.09;6251566;22;45232;-81
2022/07/28 03:21:15;;;;;;;;;3.25;3.25;;;;;19.68;40.55;101157.97;6251266;22;45421;-83
2022/07/28 03:23:44;;;;;;;;;1.50;1.50;;;;;19.67;40.04;101156.22;6278922;22;45348;-83
2022/07/28 03:26:34;;;;;;;;;3.25;1.75;;;;;19.51;40.17;101129.16;6250864;22;45368;-83
2022/07/28 03:29:01;;;;;;;;;2.00;2.00;;;;;19.67;40.73;101155.34;6250515;22;45199;-83
2022/07/28 03:31:30;;;;;;;;;2.00;2.00;;;;;19.79;40.67;101170.97;6278938;22;45559;-81
2022/07/28 03:33:56;;;;;;;;;2.25;2.25;;;;;19.68;40.40;101146.44;6279068;22;45384;-83
2022/07/28 03:36:29;;;;;;;;;2.00;2.00;;;;;19.81;40.36;101172.66;6276633;22;45846;-83
2022/07/28 03:39:01;;;;;;;;;4.50;3.00;;;;;19.78;40.54;101161.19;6278746;22;45361;-83
2022/07/28 03:41:28;;;;;;;;;2.00;2.00;;;;;19.63;40.40;101133.19;6250986;22;45295;-83
2022/07/28 03:43:55;;;;;;;;;1.50;1.50;;;;;19.69;40.49;101141.00;6276424;22;48406;-83
2022/07/28 03:46:22;;;;;;;;;1.00;1.00;;;;;19.72;40.15;101148.03;6276455;22;45536;-83
2022/07/28 03:48:47;;;;;;;;;4.00;1.50;;;;;19.72;40.32;101145.38;6276448;22;45485;-83
2022/07/28 03:51:13;;;;;;;;;4.00;3.00;;;;;19.75;40.76;101154.19;6278381;22;45186;-83
2022/07/28 03:53:40;;;;;;;;;3.50;3.25;;;;;19.65;40.88;101135.81;6276529;22;47065;-82
2022/07/28 03:56:05;;;;;;;;;2.50;2.50;;;;;19.74;40.41;101157.75;6278577;22;45222;-83
2022/07/28 03:58:31;;;;;;;;;4.50;3.00;;;;;19.60;40.59;101136.84;6278405;22;45090;-83
2022/07/28 04:00:57;;;;;;;;;3.00;3.00;;;;;19.64;40.60;101144.75;6250079;22;45742;-83
2022/07/28 04:03:23;;;;;;;;;2.75;2.75;;;;;19.70;40.33;101163.25;6250886;22;48498;-82
2022/07/28 04:05:48;;;;;;;;;2.25;1.00;;;;;19.74;40.77;101167.56;6250529;22;45444;-83
2022/07/28 04:08:14;;;;;;;;;2.00;2.00;;;;;19.55;40.92;101135.25;6251030;22;45252;-83
2022/07/28 04:10:39;;;;;;;;;2.50;2.50;;;;;19.67;40.79;101164.22;6278626;22;45262;-83
2022/07/28 04:13:06;;;;;;;;;2.75;2.00;;;;;19.60;40.78;101155.53;6278129;22;45585;-83
2022/07/28 04:15:32;;;;;;;;;3.50;2.25;;;;;19.56;40.46;101150.34;6276068;22;45716;-81
2022/07/28 04:17:59;;;;;;;;;3.00;3.00;;;;;19.45;40.44;101137.38;6250829;22;45270;-82
2022/07/28 04:20:26;;;;;;;;;3.00;1.75;;;;;19.63;40.83;101167.91;6276470;22;45378;-82
2022/07/28 04:22:52;;;;;;;;;2.00;1.00;;;;;19.52;40.76;101149.59;6250337;22;47214;-83
2022/07/28 04:25:21;;;;;;;;;2.00;2.00;;;;;19.59;40.75;101156.47;6276238;22;45328;-83
2022/07/28 04:27:47;;;;;;;;;1.75;1.75;;;;;19.56;41.05;101153.03;6250365;22;45300;-83
2022/07/28 04:30:16;;;;;;;;;1.00;1.00;;;;;19.51;40.83;101138.94;6250176;22;45372;-83
2022/07/28 04:32:43;;;;;;;;;2.00;2.00;;;;;19.54;41.13;101153.09;6278207;22;46508;-82
2022/07/28 04:35:09;;;;;;;;;3.50;2.75;;;;;19.55;40.87;101169.97;6250307;22;45355;-83
2022/07/28 04:37:35;;;;;;;;;3.75;2.00;;;;;19.54;41.13;101169.13;6249786;22;45418;-81
2022/07/28 04:40:01;;;;;;;;;3.25;1.75;;;;;19.27;41.26;101113.97;6278229;22;45350;-82
2022/07/28 04:42:27;;;;;;;;;1.25;1.25;;;;;19.45;41.34;101136.50;6276281;22;47974;-83
2022/07/28 04:44:52;;;;;;;;;2.50;2.00;;;;;19.48;41.06;101134.59;6278174;22;45355;-83
2022/07/28 04:47:18;;;;;;;;;2.00;2.00;;;;;19.42;40.70;101116.09;6245019;22;45333;-83
2022/07/28 04:49:44;;;;;;;;;2.25;2.00;;;;;19.39;41.42;101119.75;6245198;22;45777;-83
2022/07/28 04:52:11;;;;;;;;;3.75;2.75;;;;;19.47;41.39;101131.97;6246687;22;46327;-83
2022/07/28 04:54:37;;;;;;;;;1.00;1.00;;;;;19.35;41.15;101114.56;6219670;22;45243;-83
2022/07/28 04:57:03;;;;;;;;;3.50;2.50;;;;;19.37;41.30;101120.72;6219929;22;45198;-82
2022/07/28 04:59:29;;;;;;;;;2.75;2.75;;;;;19.60;41.16;101146.66;6221412;22;45308;-83
2022/07/28 05:01:56;;;;;;;;;3.00;3.00;;;;;19.56;41.52;101148.53;6248545;22;45459;-82
2022/07/28 05:04:22;;;;;;;;;3.25;2.75;;;;;19.51;41.20;101131.84;6245637;22;45342;-83
2022/07/28 05:06:47;;;;;;;;;3.75;2.00;;;;;19.54;41.13;101141.50;6219499;22;45410;-83
2022/07/28 05:09:12;;;;;;;;;2.25;2.25;;;;;19.50;40.93;101135.41;6244881;22;45442;-83
2022/07/28 05:11:38;;;;;;;;;3.00;3.00;;;;;19.59;41.37;101150.25;6244976;22;47613;-83
2022/07/28 05:14:03;;;;;;;;;2.50;2.50;;;;;19.48;40.98;101131.03;6218981;22;45841;-83
2022/07/28 05:16:29;;;;;;;;;4.00;4.00;;;;;19.46;41.41;101135.56;6246790;22;45170;-83
2022/07/28 05:18:54;;;;;;;;;3.50;2.25;;;;;19.55;41.07;101145.94;6245255;22;45346;-83
2022/07/28 05:21:20;;;;;;;;;4.00;2.75;;;;;19.41;40.81;101127.72;6219222;22;48021;-83
2022/07/28 05:23:45;;;;;;;;;3.75;3.00;;;;;19.61;41.44;101165.28;6245016;22;45248;-83
2022/07/28 05:26:11;;;;;;;;;4.50;3.00;;;;;19.63;41.36;101159.91;6248435;22;45175;-83
2022/07/28 05:28:36;;;;;;;;;2.75;2.75;;;;;19.49;41.25;101130.13;6248102;22;45106;-83
2022/07/28 05:45:00;;;;;;;;;;;;;;;;;;;;;
2022/07/28 06:11:51;;;;;;;;;;;;;;;;;;;;;
2022/07/28 06:25:34;;;;;;;;;;;;;;;;;;;;;
2022/07/28 06:29:08;;;;;;;;;3.00;3.00;;;;;20.53;40.26;101163.78;6277517;22;71756;-83
2022/07/28 06:35:31;;;;;;;;;;;;;;;;;;;;;
2022/07/28 06:49:25;;;;;;;;;3.75;3.75;;;;;21.19;39.91;101158.50;6267499;22;45346;-82
2022/07/28 06:51:47;;;;;;;;;4.75;4.50;;;;;21.17;39.68;101140.75;6272210;22;46170;-83
2022/07/28 06:54:12;;;;;;;;;4.50;4.00;;;;;21.26;39.07;101149.28;6279114;22;45326;-81
2022/07/28 06:56:37;;;;;;;;;9.50;6.25;;;;;21.39;39.05;101157.72;6251055;22;45221;-83
2022/07/28 06:59:03;;;;;;;;;4.25;4.25;;;;;21.43;38.94;101140.56;6278680;22;45253;-83
2022/07/28 07:01:28;;;;;;;;;4.75;2.75;;;;;21.50;38.91;101150.09;6251009;22;46705;-82
2022/07/28 07:03:54;;;;;;;;;7.50;4.75;;;;;21.53;38.72;101147.28;6251268;22;45183;-83
2022/07/28 07:06:22;;;;;;;;;4.00;4.00;;;;;21.60;38.48;101158.63;6276536;22;45224;-83
2022/07/28 07:08:47;;;;;;;;;2.67;2.67;;;;;21.59;38.56;101140.78;6278612;22;46229;-83
2022/07/28 07:11:13;;;;;;;;;4.00;4.00;;;;;21.69;38.58;101133.22;6276225;22;47994;-83
2022/07/28 07:13:38;;;;;;;;;3.00;1.00;;;;;21.88;38.20;101158.25;6250848;22;45279;-83
2022/07/28 07:16:06;;;;;;;;;3.25;3.25;;;;;21.92;38.28;101159.88;6279163;22;45197;-83
2022/07/28 07:18:32;;;;;;;;;7.25;6.00;;;;;22.08;37.83;101169.91;6250984;22;45391;-82
2022/07/28 07:20:57;;;;;;;;;19.50;15.75;;;;;22.06;38.20;101151.22;6276926;22;47884;-82
2022/07/28 07:23:23;;;;;;;;;5.50;4.25;;;;;22.17;38.01;101148.91;6276421;22;45201;-82
2022/07/28 07:25:48;;;;;;;;;3.00;3.00;;;;;22.34;37.48;101163.38;6279036;22;45216;-82
2022/07/28 07:28:14;;;;;;;;;4.00;4.00;;;;;22.41;37.38;101160.34;6278682;22;45492;-83
2022/07/28 07:30:39;;;;;;;;;3.50;3.50;;;;;22.54;37.58;101171.41;6250603;22;47425;-82
2022/07/28 07:33:07;;;;;;;;;4.25;4.00;;;;;22.56;37.50;101156.09;6249965;22;45463;-83
2022/07/28 07:35:33;;;;;;;;;4.75;4.00;;;;;22.73;37.03;101165.16;6251515;22;45281;-81
2022/07/28 07:37:58;;;;;;;;;5.00;4.00;;;;;22.71;36.80;101151.81;6250736;22;45566;-80
2022/07/28 07:40:23;;;;;;;;;5.25;4.75;;;;;22.78;36.79;101161.31;6279077;22;45337;-81
2022/07/28 07:42:49;;;;;;;;;4.75;4.75;;;;;22.75;36.72;101153.41;6278728;22;45430;-81
2022/07/28 07:45:14;;;;;;;;;7.00;6.00;;;;;22.81;36.56;101150.41;6276270;22;45425;-81
2022/07/28 07:47:39;;;;;;;;;41.25;36.00;;;;;23.00;36.64;101171.91;6277392;22;45359;-81
2022/07/28 07:50:08;;;;;;;;;7.00;5.50;;;;;23.04;36.37;101156.50;6278378;22;45769;-80
2022/07/28 07:52:33;;;;;;;;;4.00;4.00;;;;;23.13;36.15;101161.44;6250636;22;45213;-83
2022/07/28 07:55:11;;;;;;;;;;;;;;;;;;;;;
2022/07/28 08:01:53;;;;;;;;;;;;;;;;;;;;;
2022/07/28 08:08:43;;;;;;;;;;;;;;;;;;;;;
2022/07/28 08:11:39;;;;;;;;;;;;;;;;;;;;;
2022/07/28 08:41:59;;;;;;;;;;;;;;;;;;;;;
2022/07/28 08:59:09;;;;;;;;;4.67;4.67;;;;;24.61;33.70;101138.47;6254828;22;45193;-83
2022/07/28 09:02:24;;;;;;;;;;;;;;;;;;;;;
2022/07/28 09:08:39;;;;;;;;;5.50;4.50;;;;;24.74;33.72;101117.97;6264518;22;46703;-83
2022/07/28 09:11:06;;;;;;;;;5.00;4.25;;;;;24.81;33.55;101118.50;6241087;22;45617;-83
2022/07/28 09:13:33;;;;;;;;;4.00;4.00;;;;;24.96;33.54;101131.06;6276572;22;45158;-83
2022/07/28 09:15:59;;;;;;;;;5.33;5.33;;;;;25.02;33.31;101124.44;6276605;22;45491;-81
2022/07/28 09:18:24;;;;;;;;;5.00;4.00;;;;;24.99;33.07;101112.03;6250994;22;47313;-83
2022/07/28 09:20:50;;;;;;;;;4.75;4.75;;;;;25.19;33.35;101131.59;6250853;22;45380;-83
2022/07/28 09:23:15;;;;;;;;;3.00;3.00;;;;;25.27;33.00;101130.16;6279196;22;45275;-83
2022/07/28 09:25:41;;;;;;;;;3.25;3.00;;;;;25.35;32.79;101124.34;6251240;22;45340;-82
2022/07/28 09:28:14;;;;;;;;;5.33;5.00;;;;;25.40;32.50;101118.69;6278647;22;45477;-83
2022/07/28 09:30:41;;;;;;;;;5.00;5.00;;;;;25.45;32.53;101112.03;6250812;22;45383;-83
2022/07/28 09:33:26;;;;;;;;;5.75;5.75;;;;;25.63;32.22;101114.56;6251434;22;45352;-84
2022/07/28 09:35:54;;;;;;;;;4.00;4.00;;;;;25.80;31.98;101125.22;6251101;22;45391;-83
2022/07/28 09:38:22;;;;;;;;;4.50;4.00;;;;;25.88;32.00;101117.53;6278481;22;45212;-83
2022/07/28 09:41:01;;;;;;;;;3.25;3.25;;;;;26.07;31.70;101117.25;6276621;22;45133;-83
2022/07/28 09:43:41;;;;;;;;;5.00;3.67;;;;;26.12;31.51;101101.66;6250884;22;45378;-83
2022/07/28 09:46:12;;;;;;;;;5.75;4.50;;;;;26.35;31.26;101115.50;6276547;22;45470;-83
2022/07/28 09:48:49;;;;;;;;;3.00;3.00;;;;;26.39;31.06;101109.81;6249760;22;47460;-81
2022/07/28 09:51:17;;;;;;;;;4.00;4.00;;;;;26.49;31.14;101115.50;6278626;22;45158;-83
2022/07/28 09:53:43;;;;;;;;;3.00;3.00;;;;;26.60;30.17;101113.00;6250929;22;45418;-83
2022/07/28 09:56:11;;;;;;;;;2.33;2.33;;;;;26.70;30.79;101112.38;6250726;22;45782;-83
2022/07/28 09:58:37;;;;;;;;;4.50;4.50;;;;;26.77;30.22;101103.78;6250612;22;47119;-83
2022/07/28 10:01:10;;;;;;;;;2.33;2.33;;;;;26.90;30.04;101102.97;6278608;22;45324;-83
2022/07/28 10:03:38;;;;;;;;;7.00;5.33;;;;;27.04;29.90;101105.59;6276852;22;45359;-83
2022/07/28 10:06:07;;;;;;;;;4.00;4.00;;;;;27.11;29.77;101112.34;6250588;22;45376;-83
2022/07/28 10:08:39;;;;;;;;;2.33;2.00;;;;;27.25;29.95;101098.78;6276047;22;47097;-83
2022/07/28 10:11:04;;;;;;;;;5.33;3.67;;;;;27.36;29.61;101102.59;6276287;22;45167;-83
2022/07/28 10:13:29;;;;;;;;;3.00;3.00;;;;;27.39;29.42;101089.72;6250672;22;45257;-83
2022/07/28 10:16:10;;;;;;;;;4.67;3.00;;;;;27.53;28.95;101105.00;6276696;22;45478;-83
2022/07/28 10:18:40;;;;;;;;;4.00;4.00;;;;;27.58;28.99;101085.75;6250602;22;47098;-83
2022/07/28 10:21:14;;;;;;;;;3.00;3.00;;;;;27.75;28.39;101098.06;6276387;22;45204;-83
2022/07/28 10:23:47;;;;;;;;;3.00;3.00;;;;;27.78;27.91;101081.66;6250523;22;45240;-83
2022/07/28 10:26:14;;;;;;;;;2.67;2.67;;;;;27.89;28.32;101095.31;6278652;22;45241;-83
2022/07/28 10:28:46;;;;;;;;;2.67;2.67;;;;;27.88;28.29;101090.84;6250581;22;48408;-83
2022/07/28 10:31:16;;;;;;;;;2.67;2.67;;;;;27.96;28.30;101093.91;6276429;22;45794;-83
2022/07/28 10:33:49;;;;;;;;;2.00;2.00;;;;;27.90;27.90;101078.09;6278660;22;45140;-83
2022/07/28 10:36:20;;;;;;;;;2.00;2.00;;;;;27.91;28.21;101082.53;6278476;22;45161;-83
2022/07/28 10:38:48;;;;;;;;;2.00;1.50;;;;;27.92;28.40;101077.00;6250496;22;48106;-83
2022/07/28 10:41:17;;;;;;;;;3.00;3.00;;;;;28.02;28.64;101081.78;6250837;22;45220;-83
2022/07/28 10:43:43;;;;;;;;;4.33;3.67;;;;;28.13;27.97;101077.31;6276182;22;45187;-83
2022/07/28 10:46:10;;;;;;;;;2.00;2.00;;;;;28.29;28.07;101078.91;6278035;22;45358;-83
2022/07/28 10:48:37;;;;;;;;;3.00;3.00;;;;;28.43;27.61;101086.91;6245208;22;47032;-83
2022/07/28 10:51:03;;;;;;;;;3.00;3.00;;;;;28.49;27.35;101069.34;6220113;22;45483;-83
2022/07/28 10:53:52;;;;;;;;;3.00;3.00;;;;;28.68;27.02;101072.44;6219656;22;45386;-83
2022/07/28 10:56:51;;;;;;;;;3.00;3.00;;;;;28.72;27.29;101063.06;6245458;22;45336;-83
2022/07/28 10:59:44;;;;;;;;;3.00;3.00;;;;;28.94;27.43;101077.72;6214798;22;47049;-84
2022/07/28 11:02:49;;;;;;;;;2.67;2.67;;;;;29.00;27.21;101067.28;6247885;22;45297;-83
2022/07/28 11:05:24;;;;;;;;;4.00;3.00;;;;;29.10;26.78;101078.31;6245773;22;45340;-83
2022/07/28 11:07:50;;;;;;;;;4.67;4.67;;;;;29.07;26.68;101075.84;6245550;22;45488;-84
2022/07/28 11:10:17;;;;;;;;;3.67;3.67;;;;;28.98;27.17;101061.13;6245525;22;48162;-84
2022/07/28 11:12:48;;;;;;;;;2.67;2.67;;;;;28.91;26.82;101070.69;6247640;22;45170;-84
2022/07/28 11:15:34;;;;;;;;;3.00;3.00;;;;;28.82;27.48;101070.53;6220284;22;45240;-83
2022/07/28 11:18:07;;;;;;;;;4.00;3.67;;;;;28.93;27.31;101079.56;6247545;22;45356;-83
2022/07/28 11:21:00;;;;;;;;;4.00;4.00;;;;;29.04;27.45;101073.38;6219927;22;48383;-83
2022/07/28 11:23:45;;;;;;;;;2.33;2.33;;;;;29.16;26.73;101071.56;6244589;22;45293;-82
2022/07/28 11:26:19;;;;;;;;;2.00;2.00;;;;;29.34;27.41;101070.13;6247241;22;45100;-83
2022/07/28 11:29:04;;;;;;;;;1.67;1.67;;;;;29.55;26.35;101072.16;6245034;22;45177;-83
2022/07/28 11:31:45;;;;;;;;;3.67;3.67;;;;;29.70;26.67;101070.09;6244417;22;46901;-83
2022/07/28 11:34:17;;;;;;;;;2.33;2.33;;;;;29.84;26.14;101069.91;6247470;22;45358;-83
2022/07/28 11:37:08;;;;;;;;;3.33;3.00;;;;;29.90;25.98;101063.97;6245236;22;45430;-83
2022/07/28 11:39:36;;;;;;;;;3.00;3.00;;;;;29.86;25.85;101063.34;6247807;22;45207;-83
2022/07/28 11:42:34;;;;;;;;;2.67;2.67;;;;;29.95;25.60;101063.59;6247455;22;45253;-83
2022/07/28 11:45:25;;;;;;;;;2.33;2.33;;;;;30.07;25.70;101068.03;6245289;22;45391;-83
2022/07/28 11:48:15;;;;;;;;;1.00;1.00;;;;;30.11;25.43;101062.22;6260194;22;45427;-83
2022/07/28 11:50:41;;;;;;;;;4.00;3.00;;;;;30.08;25.62;101057.06;6278211;22;45343;-83
2022/07/28 11:53:24;;;;;;;;;3.67;3.67;;;;;30.04;25.28;101065.56;6250363;22;47706;-83
2022/07/28 11:55:52;;;;;;;;;3.00;3.00;;;;;29.96;25.03;101060.75;6278315;22;45378;-83
2022/07/28 11:58:24;;;;;;;;;3.67;3.67;;;;;29.94;25.44;101056.44;6277890;22;45287;-83
2022/07/28 12:03:52;;;;;;;;;2.00;1.00;;;;;30.05;25.08;101051.88;6261375;22;45230;-83
2022/07/28 12:06:19;;;;;;;;;2.33;2.33;;;;;30.23;25.05;101064.97;6277593;22;45490;-83
2022/07/28 12:09:15;;;;;;;;;;;;;;;;;;;;;
2022/07/28 12:11:52;;;;;;;;;3.00;3.00;;;;;30.25;24.60;101046.69;6276789;22;72688;-83
2022/07/28 12:14:31;;;;;;;;;1.00;1.00;;;;;30.44;24.56;101057.75;6248629;22;47438;-83
2022/07/28 12:39:38;;;;;;;;;;;;;;;;;;;;;
2022/07/28 12:47:19;;;;;;;;;1.67;1.67;;;;;31.98;22.18;101044.69;5841126;24;45417;-83
2022/07/28 12:49:45;;;;;;;;;3.00;2.00;;;;;31.96;22.09;101046.69;5868464;24;45534;-81
2022/07/28 12:52:28;;;;;;;;;1.00;1.00;;;;;32.03;22.03;101036.97;5962691;23;45864;-83
2022/07/28 12:54:53;;;;;;;;;1.67;1.67;;;;;32.18;21.95;101042.88;6176652;22;46717;-83
2022/07/28 12:57:41;;;;;;;;;1.67;1.67;;;;;32.30;21.62;101039.06;6246278;22;45391;-83
2022/07/28 13:00:09;;;;;;;;;1.33;1.33;;;;;32.33;22.04;101044.22;6220354;22;45349;-83
2022/07/28 13:02:35;;;;;;;;;0.67;0.67;;;;;32.36;21.09;101051.25;6247505;22;45150;-83
2022/07/28 13:05:01;;;;;;;;;2.00;2.00;;;;;32.29;21.48;101029.13;6245649;22;46915;-83
2022/07/28 13:07:29;;;;;;;;;4.00;3.00;;;;;32.48;21.08;101034.69;6249316;22;45216;-83
2022/07/28 13:10:05;;;;;;;;;1.00;1.00;;;;;32.77;21.19;101049.34;6248026;22;45375;-83
2022/07/28 13:12:33;;;;;;;;;2.33;2.33;;;;;33.01;20.80;101022.50;6220324;22;45359;-83
2022/07/28 13:15:03;;;;;;;;;1.33;1.33;;;;;33.28;20.96;101034.53;6219739;22;46636;-83
2022/07/28 13:17:48;;;;;;;;;4.00;3.00;;;;;33.35;20.77;101038.41;6245072;22;45361;-83
2022/07/28 13:20:13;;;;;;;;;2.33;2.33;;;;;33.25;20.63;101027.50;6248097;22;45261;-83
2022/07/28 13:22:39;;;;;;;;;2.00;2.00;;;;;33.28;20.67;101024.50;6248060;22;45351;-83
2022/07/28 13:25:06;;;;;;;;;1.00;1.00;;;;;33.31;20.73;101037.00;6220012;22;48297;-83
2022/07/28 13:27:32;;;;;;;;;1.00;1.00;;;;;33.33;20.49;101029.50;6219817;22;45225;-83
2022/07/28 13:29:58;;;;;;;;;2.00;1.33;;;;;33.39;20.77;101031.66;6220332;22;45349;-83
2022/07/28 13:32:24;;;;;;;;;1.00;1.00;;;;;33.45;20.22;101038.41;6220296;22;45460;-84
2022/07/28 13:34:50;;;;;;;;;1.33;1.33;;;;;33.48;20.25;101030.78;6247576;22;45905;-83
2022/07/28 13:37:16;;;;;;;;;0.00;0.00;;;;;33.51;20.08;101024.16;6220183;22;45263;-83
2022/07/28 13:39:41;;;;;;;;;1.33;1.33;;;;;33.62;20.03;101032.19;6247965;22;45189;-83
2022/07/28 13:42:07;;;;;;;;;1.33;1.33;;;;;33.67;19.82;101027.16;6220217;22;45123;-83
2022/07/28 13:44:35;;;;;;;;;1.00;1.00;;;;;33.83;20.20;101042.91;6220176;22;46005;-83
2022/07/28 13:47:01;;;;;;;;;1.67;1.00;;;;;33.92;19.68;101031.09;6220357;22;45366;-83
2022/07/28 13:49:28;;;;;;;;;3.67;2.67;;;;;33.98;20.38;101032.34;6239041;22;45296;-84
2022/07/28 13:51:53;;;;;;;;;1.00;1.00;;;;;33.90;19.51;101022.19;6245973;22;45426;-83
2022/07/28 13:54:19;;;;;;;;;2.00;1.00;;;;;33.83;19.35;101021.91;6220533;22;45900;-83
2022/07/28 13:56:46;;;;;;;;;1.00;1.00;;;;;33.62;19.54;101013.09;6220375;22;45152;-83
2022/07/28 13:59:12;;;;;;;;;2.00;0.67;;;;;33.29;19.87;101017.19;6247634;22;45243;-83
2022/07/28 14:01:39;;;;;;;;;2.33;2.33;;;;;32.98;20.05;101011.00;6245777;22;45493;-83
2022/07/28 14:04:06;;;;;;;;;1.67;1.67;;;;;32.80;20.34;101022.66;6247473;22;45340;-83
2022/07/28 14:06:34;;;;;;;;;1.67;1.33;;;;;32.58;20.43;101012.84;6219839;22;45288;-83
2022/07/28 14:09:01;;;;;;;;;3.00;3.00;;;;;32.50;20.30;101007.25;6220243;22;45332;-83
2022/07/28 14:11:26;;;;;;;;;2.33;1.33;;;;;32.41;20.52;101010.81;6247696;22;45245;-83
2022/07/28 14:13:52;;;;;;;;;4.00;3.75;;;;;32.27;20.42;101028.44;6219938;22;46671;-83
2022/07/28 14:16:18;;;;;;;;;3.33;2.33;;;;;32.05;20.83;101004.97;6248180;22;45111;-83
2022/07/28 14:18:44;;;;;;;;;2.33;2.33;;;;;32.00;21.04;101024.47;6248222;22;45306;-81
2022/07/28 14:21:09;;;;;;;;;2.00;2.00;;;;;31.84;20.97;101018.66;6218933;22;45779;-81
2022/07/28 14:23:35;;;;;;;;;3.00;3.00;;;;;31.77;21.30;101012.88;6220103;22;48172;-81
2022/07/28 14:26:00;;;;;;;;;3.50;3.50;;;;;31.60;21.55;101014.38;6247659;22;44803;-81
2022/07/28 14:28:26;;;;;;;;;3.00;3.00;;;;;31.55;21.18;101022.09;6247947;22;45400;-81
2022/07/28 14:30:51;;;;;;;;;2.33;2.33;;;;;31.64;21.46;101020.41;6220193;22;45862;-82